Liverpool John Lennon Airport

EGGP · Inghilterra, Regno Unito

Storia di METAR EGGP · Liverpool John Lennon Airport

Di seguito sono riportati i METAR degli ultimi giorni. Seleziona un anno per sfogliare i METAR più vecchi, dall'anno 2007 in poi.

27 novembre 2022

Tempo Codice Tempo metereologico Temp. Vista Base nuvolosa Vento METAR/SPECI
14:20
V
10 °C 10 km+ - 150° 150° 6 kt METAR EGGP 271420Z 15006KT 120V190 9999 SCT024 10/07 Q1008
13:50
V
10 °C 10 km+ - 150° 150° 6 kt METAR EGGP 271350Z 15006KT 090V190 9999 FEW030 10/07 Q1009
13:20
V
10 °C 10 km+ - 160° 160° 6 kt METAR EGGP 271320Z 16006KT 090V230 9999 FEW030 10/08 Q1009
12:50
V
10 °C 10 km+ - 160° 160° 6 kt METAR EGGP 271250Z 16006KT 120V220 CAVOK 10/08 Q1009
12:20
V
11 °C 10 km+ - 160° 160° 5 kt METAR EGGP 271220Z 16005KT 110V220 CAVOK 11/08 Q1010
11:50
V
10 °C 10 km+ - 170° 170° 5 kt METAR EGGP 271150Z 17005KT 120V210 9999 FEW020 10/08 Q1010
11:20
V
10 °C 10 km+ - 170° 170° 6 kt METAR EGGP 271120Z 17006KT 110V210 9999 FEW020 10/08 Q1010
10:50
V
10 °C 10 km+ - 170° 170° 6 kt METAR EGGP 271050Z 17006KT 140V220 CAVOK 10/08 Q1010
10:20
V
10 °C 10 km+ - 170° 170° 4 kt METAR EGGP 271020Z 17004KT 140V220 CAVOK 10/08 Q1011
09:50
V
10 °C 10 km+ - 180° 180° 6 kt METAR EGGP 270950Z 18006KT 9999 FEW035 10/08 Q1010
09:20
V
10 °C 9 km 3.100 ft 170° 170° 6 kt METAR EGGP 270920Z 17006KT 130V200 9000 BKN031 10/08 Q1011
08:50
V
9 °C 9 km 3.200 ft 170° 170° 7 kt METAR EGGP 270850Z 17007KT 130V220 9000 FEW020 BKN032 09/07 Q1011
08:20
V
10 °C 9 km - 190° 190° 7 kt METAR EGGP 270820Z 19007KT 9000 FEW033 SCT040 10/08 Q1011
07:50
V
10 °C 9 km - 160° 160° 6 kt METAR EGGP 270750Z 16006KT 120V200 9000 FEW037 SCT045 10/07 Q1010
07:20
V
11 °C 10 km+ - 180° 180° 7 kt METAR EGGP 270720Z 18007KT 130V210 9999 FEW045 11/07 Q1010
06:50
V
10 °C 10 km+ - 180° 180° 6 kt METAR EGGP 270650Z 18006KT 9999 FEW041 10/07 Q1010
06:20
V
11 °C 10 km+ - 200° 200° 8 kt METAR EGGP 270620Z 20008KT 9999 FEW041 11/08 Q1011
05:50
V
11 °C 10 km+ - 200° 200° 9 kt METAR EGGP 270550Z 20009KT 9999 FEW045 11/07 Q1010
05:20
V
11 °C 10 km+ - 220° 220° 11 kt METAR EGGP 270520Z AUTO 22011KT 9999 NCD 11/07 Q1010
04:50
V
12 °C 10 km+ - 220° 220° 11 kt METAR EGGP 270450Z AUTO 22011KT 9999 NCD 12/07 Q1010
04:20
V
11 °C 10 km+ - 220° 220° 8 kt METAR EGGP 270420Z AUTO 22008KT 9999 NCD 11/07 Q1010
03:50
V
11 °C 10 km+ - 210° 210° 10 kt METAR EGGP 270350Z AUTO 21010KT 9999 NCD 11/07 Q1010
03:20
V
12 °C 10 km+ - 230° 230° 11 kt METAR EGGP 270320Z AUTO 23011KT 9999 NCD 12/08 Q1010
02:50
V
12 °C 10 km+ - 230° 230° 13 kt METAR EGGP 270250Z AUTO 23013KT 9999 NCD 12/07 Q1009
02:20
V
12 °C 10 km+ - 230° 230° 12 kt METAR EGGP 270220Z AUTO 23012KT 9999 FEW033/// 12/08 Q1009
01:50
V
12 °C 10 km+ 3.800 ft 190° 190° 10 kt METAR EGGP 270150Z AUTO 19010KT 9999 FEW026/// SCT033/// BKN038/// 12/10 Q1009
01:20
V
12 °C 10 km+ 3.400 ft 170° 170° 7 kt METAR EGGP 270120Z AUTO 17007KT 130V200 9999 SCT029/// BKN034/// 12/10 Q1009
00:50
V
12 °C 10 km+ 3.700 ft 170° 170° 8 kt METAR EGGP 270050Z AUTO 17008KT 140V220 9999 FEW021/// SCT031/// BKN037/// 12/10 Q1009
00:20
M
12 °C 10 km+ 2.800 ft 170° 170° 8 kt METAR EGGP 270020Z 17008KT 100V210 9999 -SHRA SCT023 BKN028 12/10 Q1009

26 novembre 2022

Tempo Codice Tempo metereologico Temp. Vista Base nuvolosa Vento METAR/SPECI
23:50
M
12 °C 10 km+ 1.700 ft 170° 170° 9 kt METAR EGGP 262350Z 17009KT 130V220 9999 -SHRA FEW009 BKN017 BKN022 12/10 Q1008
23:20
M
12 °C 7 km 2.000 ft 180° 180° 17 kt METAR EGGP 262320Z 18017KT 7000 -SHRA FEW009 BKN020 BKN026 12/10 Q1008
22:50
V
12 °C 10 km+ - 170° 170° 18 kt METAR EGGP 262250Z 17018KT 9999 VCSH FEW013 SCT034 12/10 Q1008
22:20
V
12 °C 10 km+ - 170° 170° 20 kt METAR EGGP 262220Z 17020KT 9999 -SHRA FEW013 SCT030 12/10 Q1008
21:50
V
13 °C 10 km+ - 160° 160° 22 kt METAR EGGP 262150Z 16022KT 9999 -SHRA SCT033 13/10 Q1008
21:20
V
13 °C 10 km+ - 170° 170° 23 kt METAR EGGP 262120Z 17023KT 9999 SCT016 13/10 Q1008
20:50
V
12 °C 10 km+ - 170° 170° 22 kt METAR EGGP 262050Z 17022KT 9999 SCT017 12/10 Q1008
20:20
V
12 °C 10 km+ - 160° 160° 18 - 28 kt METAR EGGP 262020Z 16018G28KT 9999 SCT014 12/10 Q1008
19:50
M
12 °C 10 km+ 1.600 ft 170° 170° 19 kt METAR EGGP 261950Z 17019KT 9999 -RA BKN016 12/09 Q1009
19:20
M
12 °C 10 km+ 1.700 ft 160° 160° 19 - 30 kt METAR EGGP 261920Z 16019G30KT 9999 -RA BKN017 12/09 Q1009
18:50
M
12 °C 10 km+ 1.800 ft 150° 150° 20 kt METAR EGGP 261850Z 15020KT 9999 BKN018 12/09 Q1010
18:20
V
12 °C 10 km+ - 150° 150° 20 kt METAR EGGP 261820Z 15020KT 9999 SCT021 12/09 Q1010
17:50
V
12 °C 10 km+ - 160° 160° 19 kt METAR EGGP 261750Z 16019KT 9999 SCT022 12/09 Q1011
17:20
V
12 °C 10 km+ - 160° 160° 17 - 27 kt METAR EGGP 261720Z 16017G27KT 9999 SCT025 12/09 Q1011
16:50
V
12 °C 10 km+ - 160° 160° 20 - 31 kt METAR EGGP 261650Z 16020G31KT 9999 FEW030 12/09 Q1012
16:20
V
12 °C 10 km+ - 150° 150° 17 kt METAR EGGP 261620Z 15017KT 9999 FEW030 12/09 Q1012
15:50
V
12 °C 10 km+ - 150° 150° 16 kt METAR EGGP 261550Z 15016KT 120V180 9999 FEW030 12/09 Q1013
15:20
V
12 °C 10 km+ - 150° 150° 16 kt METAR EGGP 261520Z 15016KT 9999 FEW030 12/08 Q1013
14:50
V
12 °C 10 km+ - 150° 150° 15 kt METAR EGGP 261450Z 15015KT 9999 FEW030 12/09 Q1014
14:20
M
11 °C 10 km+ 2.800 ft 150° 150° 12 kt METAR EGGP 261420Z 15012KT 110V180 9999 -DZ BKN028 11/09 Q1015
13:50
M
11 °C 10 km+ 2.800 ft 160° 160° 12 kt METAR EGGP 261350Z 16012KT 9999 BKN028 11/08 Q1015
13:20
M
11 °C 10 km+ 2.400 ft 160° 160° 12 kt METAR EGGP 261320Z 16012KT 9999 BKN024 11/08 Q1016
12:50
M
11 °C 10 km+ 2.400 ft 150° 150° 11 kt METAR EGGP 261250Z 15011KT 9999 BKN024 BKN026 11/08 Q1016
12:20
M
11 °C 10 km+ 2.600 ft 150° 150° 12 kt METAR EGGP 261220Z 15012KT 9999 BKN026 11/08 Q1017
11:50
M
11 °C 10 km+ 2.600 ft 150° 150° 12 kt METAR EGGP 261150Z 15012KT 110V190 9999 BKN026 11/08 Q1017
11:20
V
10 °C 10 km+ - 160° 160° 12 kt METAR EGGP 261120Z 16012KT 9999 FEW028 10/08 Q1018
10:50
V
10 °C 10 km+ - 150° 150° 11 kt METAR EGGP 261050Z 15011KT 9999 FEW030 10/08 Q1017
10:20
V
10 °C 10 km+ - 150° 150° 11 kt METAR EGGP 261020Z 15011KT CAVOK 10/07 Q1018
09:50
V
10 °C 10 km+ - 160° 160° 12 kt METAR EGGP 260950Z 16012KT CAVOK 10/07 Q1018
09:20
V
10 °C 10 km+ - 150° 150° 10 kt METAR EGGP 260920Z 15010KT CAVOK 10/07 Q1019
08:50
V
9 °C 10 km+ - 150° 150° 11 kt METAR EGGP 260850Z 15011KT 120V190 9999 SCT034 09/07 Q1019
08:20
V
9 °C 10 km+ - 150° 150° 10 kt METAR EGGP 260820Z 15010KT 110V180 9999 SCT032 09/07 Q1019
07:50
V
9 °C 10 km+ - 140° 140° 9 kt METAR EGGP 260750Z 14009KT 110V170 9999 SCT032 09/07 Q1019
07:20
V
9 °C 10 km+ - 150° 150° 10 kt METAR EGGP 260720Z 15010KT 110V170 9999 FEW037 09/07 Q1019
06:50
V
10 °C 10 km+ - 150° 150° 12 kt METAR EGGP 260650Z 15012KT 9999 FEW037 10/07 Q1019
06:20
V
10 °C 10 km+ - 150° 150° 11 kt METAR EGGP 260620Z 15011KT 110V170 9999 FEW037 10/07 Q1019
05:50
V
9 °C 10 km+ - 150° 150° 8 kt METAR EGGP 260550Z 15008KT 110V190 CAVOK 09/07 Q1019
05:20
V
10 °C 10 km+ - 170° 170° 8 kt METAR EGGP 260520Z AUTO 17008KT 130V220 9999 NCD 10/07 Q1019
04:50
V
10 °C 10 km+ - 170° 170° 9 kt METAR EGGP 260450Z AUTO 17009KT 110V220 9999 NCD 10/07 Q1019
04:20
V
10 °C 10 km+ - 170° 170° 7 kt METAR EGGP 260420Z AUTO 17007KT 130V250 9999 FEW037/// 10/07 Q1019
03:50
V
10 °C 10 km+ - 170° 170° 7 kt METAR EGGP 260350Z AUTO 17007KT 110V210 9999 NCD 10/07 Q1019
03:20
V
10 °C 10 km+ - 170° 170° 8 kt METAR EGGP 260320Z AUTO 17008KT 140V210 9999 FEW036/// 10/07 Q1019
02:50
V
10 °C 10 km+ - 180° 180° 12 kt METAR EGGP 260250Z AUTO 18012KT 9999 NCD 10/07 Q1019
02:20
V
10 °C 10 km+ - 170° 170° 6 kt METAR EGGP 260220Z AUTO 17006KT 110V210 9999 NCD 10/07 Q1020
01:50
V
10 °C 10 km+ - 160° 160° 7 kt METAR EGGP 260150Z AUTO 16007KT 120V200 9999 NCD 10/07 Q1020
01:20
V
9 °C 10 km+ - 160° 160° 6 kt METAR EGGP 260120Z AUTO 16006KT 100V230 9999 NCD 09/07 Q1020
00:50
V
9 °C 10 km+ - 160° 160° 6 kt METAR EGGP 260050Z AUTO 16006KT 100V210 9999 NCD 09/07 Q1020
00:20
V
9 °C 10 km+ - 170° 170° 6 kt METAR EGGP 260020Z AUTO 17006KT 110V210 9999 NCD 09/06 Q1020

25 novembre 2022

Tempo Codice Tempo metereologico Temp. Vista Base nuvolosa Vento METAR/SPECI
23:50
V
9 °C 10 km+ - 170° 170° 6 kt METAR EGGP 252350Z AUTO 17006KT 120V210 9999 NCD 09/07 Q1020
23:20
V
9 °C 10 km+ - 190° 190° 9 kt METAR EGGP 252320Z AUTO 19009KT 9999 NCD 09/06 Q1020
22:50
V
9 °C 10 km+ - 200° 200° 11 kt METAR EGGP 252250Z 20011KT 9999 FEW049 09/07 Q1020
22:20
V
9 °C 10 km+ - 180° 180° 5 kt METAR EGGP 252220Z 18005KT 140V210 9999 FEW045 09/07 Q1020
21:50
V
8 °C 10 km+ - 170° 170° 6 kt METAR EGGP 252150Z 17006KT 130V210 9999 FEW045 08/07 Q1020
21:20
V
8 °C 10 km+ - 170° 170° 7 kt METAR EGGP 252120Z 17007KT 120V210 9999 FEW045 08/07 Q1019
20:50
V
9 °C 10 km+ - 170° 170° 7 kt METAR EGGP 252050Z 17007KT 130V210 9999 FEW045 09/07 Q1019
20:20
V
9 °C 10 km+ - 160° 160° 5 kt METAR EGGP 252020Z 16005KT 120V200 9999 FEW045 09/06 Q1019
19:50
V
9 °C 10 km+ - 200° 200° 10 kt METAR EGGP 251950Z 20010KT 9999 FEW046 09/06 Q1018
19:20
V
9 °C 10 km+ - 190° 190° 10 kt METAR EGGP 251920Z 19010KT 9999 FEW042 09/06 Q1018
18:50
V
9 °C 10 km+ - 200° 200° 10 kt METAR EGGP 251850Z 20010KT CAVOK 09/06 Q1018
18:20
V
9 °C 10 km+ - 220° 220° 9 kt METAR EGGP 251820Z 22009KT CAVOK 09/06 Q1017
17:50
V
9 °C 10 km+ - 210° 210° 7 kt METAR EGGP 251750Z 21007KT CAVOK 09/06 Q1017
17:20
V
9 °C 10 km+ - 220° 220° 6 kt METAR EGGP 251720Z 22006KT CAVOK 09/06 Q1017
16:50
V
10 °C 10 km+ - 210° 210° 7 kt METAR EGGP 251650Z 21007KT CAVOK 10/06 Q1016
16:20
V
10 °C 10 km+ - 220° 220° 9 kt METAR EGGP 251620Z 22009KT CAVOK 10/06 Q1016
15:50
V
11 °C 10 km+ - 230° 230° 9 kt METAR EGGP 251550Z 23009KT 9999 FEW030 11/06 Q1015
15:20
V
11 °C 10 km+ - 230° 230° 10 kt METAR EGGP 251520Z 23010KT 9999 SCT030 11/06 Q1015
14:50
V
12 °C 10 km+ - 230° 230° 11 kt METAR EGGP 251450Z 23011KT 9999 SCT030 12/06 Q1015
14:20
V
12 °C 10 km+ - 230° 230° 10 kt METAR EGGP 251420Z 23010KT 9999 SCT030 12/06 Q1014
13:50
V
13 °C 10 km+ - 230° 230° 10 kt METAR EGGP 251350Z 23010KT 9999 FEW024 13/07 Q1014
13:20
V
12 °C 10 km+ - 230° 230° 10 kt METAR EGGP 251320Z 23010KT CAVOK 12/07 Q1013
12:50
V
12 °C 10 km+ - 230° 230° 11 kt METAR EGGP 251250Z 23011KT CAVOK 12/07 Q1013
12:20
V
12 °C 10 km+ - 230° 230° 13 kt METAR EGGP 251220Z 23013KT CAVOK 12/07 Q1013
11:50
V
12 °C 10 km+ - 220° 220° 11 kt METAR EGGP 251150Z 22011KT CAVOK 12/06 Q1012
11:20
V
11 °C 10 km+ - 220° 220° 10 kt METAR EGGP 251120Z 22010KT CAVOK 11/06 Q1012
10:50
V
11 °C 10 km+ - 220° 220° 10 kt METAR EGGP 251050Z 22010KT CAVOK 11/06 Q1011
10:20
V
9 °C 10 km+ - 210° 210° 7 kt METAR EGGP 251020Z 21007KT CAVOK 09/06 Q1011

Noi e le terze parti seguiamo il tuo comportamento su internet con i cookie. Se continui, riteniamo che tu sia d'accordo con la nostra Politica sui cookie.